createdAt,value
2017-06-11T00:00:25.392Z,936.69
2017-06-11T00:01:37.684Z,936.69
2017-06-11T00:02:50.462Z,936.73
2017-06-11T00:04:03.239Z,936.75
2017-06-11T00:05:15.532Z,936.74
2017-06-11T00:06:28.310Z,936.69
2017-06-11T00:07:40.605Z,936.7
2017-06-11T00:08:53.580Z,936.7
2017-06-11T00:10:05.872Z,936.7
2017-06-11T00:11:18.647Z,936.73
2017-06-11T00:12:31.420Z,936.73
2017-06-11T00:13:44.196Z,936.72
2017-06-11T00:14:56.969Z,936.79
2017-06-11T00:16:09.267Z,936.71
2017-06-11T00:17:21.561Z,936.71
2017-06-11T00:18:34.336Z,936.74
2017-06-11T00:19:46.633Z,936.77
2017-06-11T00:20:59.408Z,936.76
2017-06-11T00:22:12.180Z,936.79
2017-06-11T00:23:24.954Z,936.8
2017-06-11T00:24:37.454Z,936.8
2017-06-11T00:25:50.235Z,936.81
2017-06-11T00:27:02.561Z,936.79
2017-06-11T00:28:15.340Z,936.82
2017-06-11T00:29:27.648Z,936.8
2017-06-11T00:30:39.563Z,936.83
2017-06-11T00:31:51.970Z,936.86
2017-06-11T00:33:04.862Z,936.83
2017-06-11T00:34:17.758Z,936.83
2017-06-11T00:35:30.364Z,936.85
2017-06-11T00:36:43.260Z,936.89
2017-06-11T00:37:56.154Z,936.9
2017-06-11T00:39:09.048Z,936.87
2017-06-11T00:40:21.459Z,936.89
2017-06-11T00:41:33.868Z,936.89
2017-06-11T00:42:46.767Z,936.86
2017-06-11T00:43:59.663Z,936.87
2017-06-11T00:45:12.567Z,936.83
2017-06-11T00:46:25.467Z,936.86
2017-06-11T00:47:37.874Z,936.89
2017-06-11T00:48:50.771Z,936.91
2017-06-11T00:50:03.669Z,936.88
2017-06-11T00:51:16.559Z,936.9
2017-06-11T00:52:29.657Z,936.93
2017-06-11T00:53:42.580Z,936.89
2017-06-11T00:54:54.989Z,936.9
2017-06-11T00:56:07.879Z,936.89
2017-06-11T00:57:20.784Z,936.85
2017-06-11T00:58:33.680Z,936.86
2017-06-11T00:59:46.088Z,936.88
2017-06-11T01:00:58.002Z,936.88
2017-06-11T01:02:09.923Z,936.83
2017-06-11T01:03:22.823Z,936.85
2017-06-11T01:04:35.231Z,936.82
2017-06-11T01:05:48.130Z,936.8
2017-06-11T01:07:01.045Z,936.74
2017-06-11T01:08:13.162Z,936.76
2017-06-11T01:09:26.064Z,936.79
2017-06-11T01:10:38.961Z,936.81
2017-06-11T01:11:51.380Z,936.74
2017-06-11T01:13:03.795Z,936.82
2017-06-11T01:14:16.696Z,936.81
2017-06-11T01:15:29.117Z,936.78
2017-06-11T01:16:41.546Z,936.74
2017-06-11T01:17:54.463Z,936.7
2017-06-11T01:19:07.090Z,936.69
2017-06-11T01:20:20.000Z,936.66
2017-06-11T01:21:32.917Z,936.72
2017-06-11T01:22:45.832Z,936.73
2017-06-11T01:23:58.258Z,936.74
2017-06-11T01:25:11.374Z,936.76
2017-06-11T01:26:24.288Z,936.85
2017-06-11T01:27:37.209Z,936.83
2017-06-11T01:28:50.125Z,936.84
2017-06-11T01:30:03.042Z,936.83
2017-06-11T01:31:15.463Z,936.83
2017-06-11T01:32:28.414Z,936.8
2017-06-11T01:33:40.836Z,936.84
2017-06-11T01:34:53.749Z,936.82
2017-06-11T01:36:06.663Z,936.79
2017-06-11T01:37:19.579Z,936.79
2017-06-11T01:38:32.493Z,936.81
2017-06-11T01:39:45.404Z,936.81
2017-06-11T01:40:58.317Z,936.83
2017-06-11T01:42:11.231Z,936.86
2017-06-11T01:43:23.654Z,936.86
2017-06-11T01:44:36.564Z,936.88
2017-06-11T01:45:48.990Z,936.82
2017-06-11T01:47:02.103Z,936.82
2017-06-11T01:48:15.020Z,936.82
2017-06-11T01:49:27.936Z,936.75
2017-06-11T01:50:40.932Z,936.76
2017-06-11T01:51:53.630Z,936.73
2017-06-11T01:53:06.129Z,936.73
2017-06-11T01:54:18.128Z,936.71
2017-06-11T01:55:31.119Z,936.79
2017-06-11T01:56:44.118Z,936.76
2017-06-11T01:57:57.316Z,936.79
2017-06-11T01:59:10.304Z,936.78
2017-06-11T02:00:23.297Z,936.75
2017-06-11T02:01:35.800Z,936.77
2017-06-11T02:02:48.299Z,936.79
2017-06-11T02:04:01.290Z,936.77
2017-06-11T02:05:14.280Z,936.77
2017-06-11T02:06:27.278Z,936.78
2017-06-11T02:07:39.774Z,936.8
2017-06-11T02:08:52.799Z,936.77
2017-06-11T02:10:05.790Z,936.81
2017-06-11T02:11:18.783Z,936.8
2017-06-11T02:12:31.780Z,936.77
2017-06-11T02:13:44.770Z,936.73
2017-06-11T02:14:57.761Z,936.76
2017-06-11T02:16:10.257Z,936.76
2017-06-11T02:17:23.255Z,936.71
2017-06-11T02:18:36.244Z,936.7
2017-06-11T02:19:48.943Z,936.66
2017-06-11T02:21:01.942Z,936.65
2017-06-11T02:22:14.929Z,936.6
2017-06-11T02:23:27.880Z,936.59
2017-06-11T02:24:41.002Z,936.6
2017-06-11T02:25:53.914Z,936.59
2017-06-11T02:27:06.335Z,936.59
2017-06-11T02:28:19.247Z,936.57
2017-06-11T02:29:32.163Z,936.56
2017-06-11T02:30:44.581Z,936.53
2017-06-11T02:31:57.491Z,936.51
2017-06-11T02:33:09.913Z,936.51
2017-06-11T02:34:22.335Z,936.54
2017-06-11T02:35:35.451Z,936.53
2017-06-11T02:36:47.877Z,936.51
2017-06-11T02:38:00.794Z,936.47
2017-06-11T02:39:13.220Z,936.51
2017-06-11T02:40:26.161Z,936.52
2017-06-11T02:41:38.794Z,936.51
2017-06-11T02:42:51.217Z,936.44
2017-06-11T02:44:04.129Z,936.47
2017-06-11T02:45:16.535Z,936.43
2017-06-11T02:46:29.427Z,936.44
2017-06-11T02:47:41.847Z,936.36
2017-06-11T02:48:54.251Z,936.32
2017-06-11T02:50:07.148Z,936.29
2017-06-11T02:51:20.040Z,936.27
2017-06-11T02:52:33.132Z,936.26
2017-06-11T02:53:45.545Z,936.26
2017-06-11T02:54:58.437Z,936.22
2017-06-11T02:56:11.333Z,936.24
2017-06-11T02:57:23.937Z,936.21
2017-06-11T02:58:36.838Z,936.27
2017-06-11T02:59:49.244Z,936.19
2017-06-11T03:01:02.135Z,936.23
2017-06-11T03:02:14.539Z,936.18
2017-06-11T03:03:27.431Z,936.18
2017-06-11T03:04:39.833Z,936.21
2017-06-11T03:05:52.237Z,936.15
2017-06-11T03:07:05.129Z,936.1
2017-06-11T03:08:17.528Z,936.12
2017-06-11T03:09:30.421Z,936.09
2017-06-11T03:10:43.344Z,936.12
2017-06-11T03:11:56.238Z,936.1
2017-06-11T03:13:09.139Z,936.08
2017-06-11T03:14:22.236Z,936.09
2017-06-11T03:15:35.130Z,936.1
2017-06-11T03:16:48.022Z,936.09
2017-06-11T03:18:00.431Z,936.06
2017-06-11T03:19:12.543Z,936.06
2017-06-11T03:20:25.436Z,936.04
2017-06-11T03:21:37.833Z,936.02
2017-06-11T03:22:50.731Z,936
2017-06-11T03:24:03.625Z,936.02
2017-06-11T03:25:16.234Z,936.06
2017-06-11T03:26:29.131Z,936.04
2017-06-11T03:27:42.025Z,936.06
2017-06-11T03:28:54.944Z,936.06
2017-06-11T03:30:07.364Z,936.04
2017-06-11T03:31:20.275Z,936.06
2017-06-11T03:32:33.187Z,936.03
2017-06-11T03:33:45.609Z,936.05
2017-06-11T03:34:58.059Z,936.08
2017-06-11T03:36:11.175Z,936.05
2017-06-11T03:37:24.085Z,936.09
2017-06-11T03:38:36.995Z,936.06
2017-06-11T03:39:49.910Z,936.09
2017-06-11T03:41:02.535Z,936.08
2017-06-11T03:42:15.446Z,936.06
2017-06-11T03:43:28.357Z,936.04
2017-06-11T03:44:41.268Z,936.05
2017-06-11T03:45:53.691Z,936.08
2017-06-11T03:47:06.802Z,936.07
2017-06-11T03:48:19.222Z,936.09
2017-06-11T03:49:32.139Z,936.11
2017-06-11T03:50:44.557Z,936.13
2017-06-11T03:51:57.469Z,936.12
2017-06-11T03:53:10.383Z,936.09
2017-06-11T03:54:23.294Z,936.09
2017-06-11T03:55:35.714Z,936.11
2017-06-11T03:56:48.629Z,936.09
2017-06-11T03:58:01.743Z,936.14
2017-06-11T03:59:14.650Z,936.1
2017-06-11T04:00:27.075Z,936.12
2017-06-11T04:01:39.495Z,936.08
2017-06-11T04:02:52.420Z,936.05
2017-06-11T04:04:04.974Z,936.06
2017-06-11T04:05:17.530Z,936.03
2017-06-11T04:06:30.082Z,935.98
2017-06-11T04:07:42.639Z,935.96
2017-06-11T04:08:55.691Z,935.98
2017-06-11T04:10:08.742Z,935.94
2017-06-11T04:11:21.794Z,935.91
2017-06-11T04:12:34.348Z,935.91
2017-06-11T04:13:47.388Z,935.93
2017-06-11T04:14:59.814Z,935.91
2017-06-11T04:16:12.728Z,935.92
2017-06-11T04:17:25.153Z,935.92
2017-06-11T04:18:38.071Z,935.91
2017-06-11T04:19:51.182Z,935.88
2017-06-11T04:21:04.113Z,935.9
2017-06-11T04:22:17.027Z,935.87
2017-06-11T04:23:29.944Z,935.91
2017-06-11T04:24:42.858Z,935.84
2017-06-11T04:25:55.279Z,935.82
2017-06-11T04:27:08.201Z,935.84
2017-06-11T04:28:21.146Z,935.81
2017-06-11T04:29:34.066Z,935.77
2017-06-11T04:30:47.181Z,935.75
2017-06-11T04:32:00.096Z,935.8
2017-06-11T04:33:13.010Z,935.82
2017-06-11T04:34:24.942Z,935.76
2017-06-11T04:37:04.763Z,935.77
2017-06-11T04:38:17.623Z,935.73
2017-06-11T04:39:30.477Z,935.71
2017-06-11T04:40:43.044Z,935.71
2017-06-11T04:41:54.924Z,935.67
2017-06-11T04:43:07.781Z,935.68
2017-06-11T04:44:20.638Z,935.66
2017-06-11T04:45:33.498Z,935.7
2017-06-11T04:46:46.354Z,935.7
2017-06-11T04:47:59.207Z,935.75
2017-06-11T04:49:12.066Z,935.7
2017-06-11T04:50:24.918Z,935.7
2017-06-11T04:51:37.287Z,935.7
2017-06-11T04:52:49.679Z,935.69
2017-06-11T04:54:02.042Z,935.64
2017-06-11T04:55:14.412Z,935.62
2017-06-11T04:56:27.269Z,935.64
2017-06-11T04:57:40.131Z,935.64
2017-06-11T04:58:52.514Z,935.61
2017-06-11T05:00:05.486Z,935.6
2017-06-11T05:01:18.463Z,935.59
2017-06-11T05:03:58.454Z,935.57
2017-06-11T05:05:10.932Z,935.58
2017-06-11T05:06:22.915Z,935.57
2017-06-11T05:07:35.887Z,935.58
2017-06-11T05:08:48.861Z,935.57
2017-06-11T05:10:01.841Z,935.52
2017-06-11T05:11:14.819Z,935.49
2017-06-11T05:12:27.796Z,935.49
2017-06-11T05:13:41.073Z,935.47
2017-06-11T05:14:54.053Z,935.46
2017-06-11T05:16:07.025Z,935.45
2017-06-11T05:17:19.999Z,935.46
2017-06-11T05:18:33.021Z,935.44
2017-06-11T05:19:46.024Z,935.44
2017-06-11T05:20:58.515Z,935.41
2017-06-11T05:22:11.495Z,935.39
2017-06-11T05:23:24.470Z,935.37
2017-06-11T05:24:37.150Z,935.35
2017-06-11T05:25:49.630Z,935.34
2017-06-11T05:27:02.108Z,935.32
2017-06-11T05:28:14.596Z,935.3
2017-06-11T05:29:27.275Z,935.27
2017-06-11T05:30:40.251Z,935.3
2017-06-11T05:31:52.734Z,935.24
2017-06-11T05:33:05.212Z,935.23
2017-06-11T05:34:18.193Z,935.22
2017-06-11T05:35:31.170Z,935.25
2017-06-11T05:36:44.145Z,935.2
2017-06-11T05:37:56.623Z,935.19
2017-06-11T05:39:09.603Z,935.14
2017-06-11T05:40:22.787Z,935.13
2017-06-11T05:41:35.766Z,935.14
2017-06-11T05:42:48.736Z,935.12
2017-06-11T05:44:01.626Z,935.11
2017-06-11T05:45:14.521Z,935.11
2017-06-11T05:46:27.414Z,935.13
2017-06-11T05:47:40.302Z,935.13
2017-06-11T05:48:52.700Z,935.12
2017-06-11T05:50:05.592Z,935.15
2017-06-11T05:51:18.690Z,935.13
2017-06-11T05:52:31.586Z,935.15
2017-06-11T05:53:43.984Z,935.13
2017-06-11T05:54:56.384Z,935.15
2017-06-11T05:56:09.276Z,935.17
2017-06-11T05:57:22.369Z,935.17
2017-06-11T05:58:35.262Z,935.11
2017-06-11T05:59:48.151Z,935.15
2017-06-11T06:01:01.042Z,935.15
2017-06-11T06:02:14.137Z,935.14
2017-06-11T06:03:27.035Z,935.13
2017-06-11T06:04:39.922Z,935.15
2017-06-11T06:05:52.811Z,935.13
2017-06-11T06:07:05.706Z,935.18
2017-06-11T06:08:17.822Z,935.21
2017-06-11T06:09:30.225Z,935.18
2017-06-11T06:10:42.625Z,935.18
2017-06-11T06:11:55.519Z,935.12
2017-06-11T06:13:08.610Z,935.12
2017-06-11T06:14:21.503Z,935.11
2017-06-11T06:15:34.394Z,935.11
2017-06-11T06:16:47.284Z,935.09
2017-06-11T06:18:00.178Z,935.12
2017-06-11T06:19:13.067Z,935.09
2017-06-11T06:20:25.953Z,935.1
2017-06-11T06:21:38.843Z,935.11
2017-06-11T06:22:51.734Z,935.09
2017-06-11T06:24:04.140Z,935.1
2017-06-11T06:25:17.033Z,935.09
2017-06-11T06:26:29.920Z,935.12
2017-06-11T06:27:42.340Z,935.12
2017-06-11T06:28:55.216Z,935.12
2017-06-11T06:30:07.711Z,935.13
2017-06-11T06:31:20.479Z,935.09
2017-06-11T06:32:32.787Z,935.1
2017-06-11T06:33:45.102Z,935.09
2017-06-11T06:34:58.088Z,935.07
2017-06-11T06:36:10.860Z,935.1
2017-06-11T06:37:23.636Z,935.08
2017-06-11T06:38:35.928Z,935.08
2017-06-11T06:39:47.738Z,935.06
2017-06-11T06:41:00.028Z,935.08
2017-06-11T06:42:12.803Z,935.1
2017-06-11T06:43:25.582Z,935.1
2017-06-11T06:44:37.870Z,935.11
2017-06-11T06:45:49.885Z,935.13
2017-06-11T06:47:02.657Z,935.15
2017-06-11T06:48:15.426Z,935.17
2017-06-11T06:49:28.198Z,935.15
2017-06-11T06:50:40.970Z,935.14
2017-06-11T06:51:53.460Z,935.16
2017-06-11T06:53:05.757Z,935.19
2017-06-11T06:54:17.567Z,935.22
2017-06-11T06:55:30.337Z,935.19
2017-06-11T06:56:42.344Z,935.19
2017-06-11T06:57:54.639Z,935.22
2017-06-11T06:59:06.927Z,935.22
2017-06-11T07:00:19.216Z,935.23
2017-06-11T07:01:32.014Z,935.23
2017-06-11T07:02:44.306Z,935.2
2017-06-11T07:03:56.604Z,935.21
2017-06-11T07:05:08.898Z,935.2
2017-06-11T07:06:21.681Z,935.18
2017-06-11T07:07:33.521Z,935.19
2017-06-11T07:08:46.012Z,935.23
2017-06-11T07:09:58.782Z,935.19
2017-06-11T07:11:11.071Z,935.2
2017-06-11T07:12:23.843Z,935.22
2017-06-11T07:13:36.614Z,935.23
2017-06-11T07:14:49.429Z,935.2
2017-06-11T07:16:01.852Z,935.22
2017-06-11T07:17:14.775Z,935.2
2017-06-11T07:18:27.686Z,935.14
2017-06-11T07:19:40.306Z,935.17
2017-06-11T07:20:53.216Z,935.14
2017-06-11T07:22:06.126Z,935.16
2017-06-11T07:23:18.548Z,935.15
2017-06-11T07:24:31.661Z,935.12
2017-06-11T07:25:44.084Z,935.13
2017-06-11T07:26:56.993Z,935.12
2017-06-11T07:28:09.902Z,935.15
2017-06-11T07:29:22.331Z,935.07
2017-06-11T07:30:35.253Z,935.08
2017-06-11T07:31:47.186Z,935.09
2017-06-11T07:33:00.105Z,935.11
2017-06-11T07:34:12.533Z,935.1
2017-06-11T07:35:25.439Z,935.07
2017-06-11T07:36:38.347Z,935.05
2017-06-11T07:37:51.264Z,935.06
2017-06-11T07:39:04.173Z,935.04
2017-06-11T07:40:17.085Z,935.07
2017-06-11T07:41:30.018Z,935.04
2017-06-11T07:42:41.953Z,935.08
2017-06-11T07:43:54.882Z,935.11
2017-06-11T07:45:06.811Z,935.1
2017-06-11T07:46:19.918Z,935.07
2017-06-11T07:47:32.829Z,935.08
2017-06-11T07:48:45.257Z,935.06
2017-06-11T07:49:58.163Z,935.08
2017-06-11T07:51:11.071Z,935.08
2017-06-11T07:52:23.981Z,935.08
2017-06-11T07:53:36.399Z,935.07
2017-06-11T07:54:49.312Z,935.09
2017-06-11T07:56:02.228Z,935.12
2017-06-11T07:57:15.498Z,935.1
2017-06-11T07:58:28.550Z,935.12
2017-06-11T07:59:41.590Z,935.08
2017-06-11T08:00:54.013Z,935.1
2017-06-11T08:02:06.938Z,935.09
2017-06-11T08:03:19.861Z,935.11
2017-06-11T08:04:32.789Z,935.1
2017-06-11T08:05:45.226Z,935.11
2017-06-11T08:06:57.654Z,935.09
2017-06-11T08:08:10.082Z,935.1
2017-06-11T08:09:22.997Z,935.07
2017-06-11T08:10:35.910Z,935.07
2017-06-11T08:11:48.345Z,935.07
2017-06-11T08:13:01.265Z,935.09
2017-06-11T08:14:14.181Z,935.09
2017-06-11T08:15:27.096Z,935.09
2017-06-11T08:16:40.015Z,935.12
2017-06-11T08:17:52.946Z,935.11
2017-06-11T08:19:06.065Z,935.11
2017-06-11T08:20:17.999Z,935.15
2017-06-11T08:21:30.921Z,935.19
2017-06-11T08:22:43.842Z,935.2
2017-06-11T08:23:56.766Z,935.22
2017-06-11T08:25:09.919Z,935.26
2017-06-11T08:26:21.857Z,935.26
2017-06-11T08:27:34.784Z,935.34
2017-06-11T08:28:47.701Z,935.32
2017-06-11T08:30:00.613Z,935.32
2017-06-11T08:31:13.534Z,935.35
2017-06-11T08:32:26.453Z,935.35
2017-06-11T08:33:39.378Z,935.34
2017-06-11T08:34:52.297Z,935.3
2017-06-11T08:36:05.418Z,935.28
2017-06-11T08:37:18.339Z,935.29
2017-06-11T08:38:31.258Z,935.34
2017-06-11T08:39:44.180Z,935.34
2017-06-11T08:40:56.611Z,935.34
2017-06-11T08:42:09.561Z,935.34
2017-06-11T08:43:21.988Z,935.34
2017-06-11T08:44:34.925Z,935.34
2017-06-11T08:45:47.978Z,935.39
2017-06-11T08:47:01.030Z,935.43
2017-06-11T08:48:14.082Z,935.44
2017-06-11T08:49:26.636Z,935.44
2017-06-11T08:50:38.716Z,935.45
2017-06-11T08:51:51.963Z,935.45
2017-06-11T08:53:05.014Z,935.48
2017-06-11T08:54:18.087Z,935.5
2017-06-11T08:55:31.138Z,935.55
2017-06-11T08:56:44.223Z,935.52
2017-06-11T08:57:57.274Z,935.5
2017-06-11T08:59:10.330Z,935.51
2017-06-11T09:00:22.886Z,935.49
2017-06-11T09:01:35.969Z,935.52
2017-06-11T09:02:48.012Z,935.52
2017-06-11T09:04:00.925Z,935.5
2017-06-11T09:05:13.345Z,935.53
2017-06-11T09:06:26.254Z,935.55
2017-06-11T09:07:39.161Z,935.55
2017-06-11T09:08:52.272Z,935.6
2017-06-11T09:10:05.186Z,935.6
2017-06-11T09:11:18.114Z,935.63
2017-06-11T09:12:31.023Z,935.64
2017-06-11T09:13:44.130Z,935.67
2017-06-11T09:14:57.037Z,935.66
2017-06-11T09:16:09.946Z,935.7
2017-06-11T09:17:22.853Z,935.73
2017-06-11T09:18:35.764Z,935.72
2017-06-11T09:19:48.888Z,935.74
2017-06-11T09:21:01.314Z,935.79
2017-06-11T09:22:14.228Z,935.8
2017-06-11T09:23:27.139Z,935.82
2017-06-11T09:24:40.050Z,935.83
2017-06-11T09:25:52.963Z,935.81
2017-06-11T09:27:05.389Z,935.81
2017-06-11T09:28:18.300Z,935.78
2017-06-11T09:29:31.193Z,935.81
2017-06-11T09:30:44.166Z,935.8
2017-06-11T09:31:56.457Z,935.82
2017-06-11T09:33:09.229Z,935.79
2017-06-11T09:34:22.000Z,935.83
2017-06-11T09:35:34.978Z,935.78
2017-06-11T09:36:47.267Z,935.84
2017-06-11T09:38:00.044Z,935.81
2017-06-11T09:39:12.330Z,935.81
2017-06-11T09:40:25.101Z,935.86
2017-06-11T09:41:38.070Z,935.8
2017-06-11T09:42:50.362Z,935.81
2017-06-11T09:44:03.137Z,935.84
2017-06-11T09:45:15.911Z,935.84
2017-06-11T09:46:28.201Z,935.86
2017-06-11T09:47:40.493Z,935.85
2017-06-11T09:48:53.262Z,935.82
2017-06-11T09:50:05.554Z,935.84
2017-06-11T09:51:17.859Z,935.86
2017-06-11T09:52:30.628Z,935.9
2017-06-11T09:53:42.915Z,935.86
2017-06-11T09:54:55.686Z,935.88
2017-06-11T09:56:08.459Z,935.86
2017-06-11T09:57:20.949Z,935.84
2017-06-11T09:58:33.725Z,935.88
2017-06-11T09:59:46.016Z,935.86
2017-06-11T10:00:58.793Z,935.91
2017-06-11T10:02:11.106Z,935.9
2017-06-11T10:03:23.604Z,935.91
2017-06-11T10:04:36.376Z,935.91
2017-06-11T10:05:48.671Z,935.89
2017-06-11T10:07:00.480Z,935.9
2017-06-11T10:08:13.251Z,935.92
2017-06-11T10:09:25.540Z,935.9
2017-06-11T10:10:37.833Z,935.88
2017-06-11T10:11:49.653Z,935.94
2017-06-11T10:13:02.422Z,935.93
2017-06-11T10:14:15.392Z,935.92
2017-06-11T10:15:28.213Z,935.93
2017-06-11T10:16:40.993Z,935.91
2017-06-11T10:17:53.771Z,935.93
2017-06-11T10:19:06.748Z,935.95
2017-06-11T10:20:19.523Z,935.89
2017-06-11T10:21:32.298Z,935.91
2017-06-11T10:22:45.077Z,935.89
2017-06-11T10:23:57.850Z,935.91
2017-06-11T10:25:10.349Z,935.9
2017-06-11T10:26:23.134Z,935.93
2017-06-11T10:27:35.908Z,935.97
2017-06-11T10:28:48.200Z,936
2017-06-11T10:30:00.010Z,936.04
2017-06-11T10:31:12.308Z,936.03
2017-06-11T10:32:25.085Z,935.98
2017-06-11T10:33:37.856Z,936.04
2017-06-11T10:34:50.148Z,936.05
2017-06-11T10:36:02.642Z,936.02
2017-06-11T10:37:14.944Z,936.07
2017-06-11T10:38:26.758Z,936.09
2017-06-11T10:39:39.538Z,936.12
2017-06-11T10:40:52.517Z,936.14
2017-06-11T10:42:04.816Z,936.19
2017-06-11T10:43:17.597Z,936.23
2017-06-11T10:44:29.888Z,936.23
2017-06-11T10:45:42.198Z,936.26
2017-06-11T10:46:55.181Z,936.24
2017-06-11T10:48:07.473Z,936.26
2017-06-11T10:49:20.249Z,936.27
2017-06-11T10:50:33.034Z,936.32
2017-06-11T10:51:45.534Z,936.32
2017-06-11T10:52:57.834Z,936.33
2017-06-11T10:54:10.617Z,936.36
2017-06-11T10:55:23.391Z,936.35
2017-06-11T10:56:36.175Z,936.4
2017-06-11T10:57:48.956Z,936.44
2017-06-11T10:59:01.774Z,936.41
2017-06-11T11:00:14.690Z,936.46
2017-06-11T11:01:27.601Z,936.41
2017-06-11T11:02:40.514Z,936.46
2017-06-11T11:03:53.420Z,936.47
2017-06-11T11:05:06.334Z,936.49
2017-06-11T11:06:18.760Z,936.51
2017-06-11T11:07:31.179Z,936.59
2017-06-11T11:08:43.309Z,936.55
2017-06-11T11:09:56.216Z,936.6
2017-06-11T11:11:08.646Z,936.65
2017-06-11T11:12:21.559Z,936.66
2017-06-11T11:13:34.668Z,936.68
2017-06-11T11:14:47.578Z,936.73
2017-06-11T11:16:00.488Z,936.73
2017-06-11T11:17:13.400Z,936.73
2017-06-11T11:18:26.312Z,936.75
2017-06-11T11:19:38.733Z,936.75
2017-06-11T11:20:51.649Z,936.75
2017-06-11T11:22:04.557Z,936.75
2017-06-11T11:23:17.467Z,936.79
2017-06-11T11:24:30.583Z,936.8
2017-06-11T11:25:43.006Z,936.81
2017-06-11T11:26:55.419Z,936.86
2017-06-11T11:28:07.841Z,936.85
2017-06-11T11:29:20.256Z,936.86
2017-06-11T11:30:33.168Z,936.88
2017-06-11T11:31:46.078Z,936.86
2017-06-11T11:32:58.987Z,936.88
2017-06-11T11:34:11.413Z,936.93
2017-06-11T11:35:24.029Z,936.92
2017-06-11T11:36:36.941Z,936.91
2017-06-11T11:37:49.857Z,936.9
2017-06-11T11:39:02.275Z,936.98
2017-06-11T11:40:14.691Z,937
2017-06-11T11:41:27.599Z,937.01
2017-06-11T11:42:40.024Z,937.01
2017-06-11T11:43:52.917Z,937.04
2017-06-11T11:45:05.213Z,937.05
2017-06-11T11:46:18.190Z,937.03
2017-06-11T11:47:30.482Z,937.09
2017-06-11T11:48:43.258Z,937.08
2017-06-11T11:49:56.039Z,937.1
2017-06-11T11:51:08.830Z,937.08
2017-06-11T11:52:21.125Z,937.1
2017-06-11T11:53:33.417Z,937.1
2017-06-11T11:54:46.190Z,937.16
2017-06-11T11:55:58.970Z,937.11
2017-06-11T11:57:11.751Z,937.16
2017-06-11T11:58:24.523Z,937.19
2017-06-11T11:59:37.291Z,937.19
2017-06-11T12:00:49.104Z,937.16
2017-06-11T12:02:01.408Z,937.17
2017-06-11T12:03:13.922Z,937.2
2017-06-11T12:04:26.224Z,937.22
2017-06-11T12:05:39.026Z,937.22
2017-06-11T12:06:51.803Z,937.24
2017-06-11T12:08:04.589Z,937.25
2017-06-11T12:09:17.366Z,937.24
2017-06-11T12:10:30.142Z,937.25
2017-06-11T12:11:42.931Z,937.31
2017-06-11T12:12:55.708Z,937.29
2017-06-11T12:14:08.686Z,937.28
2017-06-11T12:15:21.458Z,937.27
2017-06-11T12:16:34.231Z,937.33
2017-06-11T12:17:47.016Z,937.28
2017-06-11T12:18:59.794Z,937.32
2017-06-11T12:20:12.567Z,937.34
2017-06-11T12:21:24.864Z,937.34
2017-06-11T12:22:37.646Z,937.33
2017-06-11T12:23:50.440Z,937.37
2017-06-11T12:25:03.215Z,937.34
2017-06-11T12:26:15.993Z,937.35
2017-06-11T12:27:28.796Z,937.34
2017-06-11T12:28:41.574Z,937.31
2017-06-11T12:29:54.431Z,937.34
2017-06-11T12:31:05.858Z,937.38
2017-06-11T12:32:18.755Z,937.42
2017-06-11T12:33:31.646Z,937.44
2017-06-11T12:34:44.533Z,937.45
2017-06-11T12:35:57.636Z,937.48
2017-06-11T12:37:10.038Z,937.47
2017-06-11T12:38:22.942Z,937.52
2017-06-11T12:39:35.346Z,937.51
2017-06-11T12:40:48.434Z,937.53
2017-06-11T12:42:00.830Z,937.57
2017-06-11T12:43:13.720Z,937.56
2017-06-11T12:44:26.617Z,937.57
2017-06-11T12:45:39.513Z,937.58
2017-06-11T12:46:52.411Z,937.59
2017-06-11T12:48:05.304Z,937.56
2017-06-11T12:49:18.195Z,937.55
2017-06-11T12:50:31.108Z,937.54
2017-06-11T12:51:44.003Z,937.54
2017-06-11T12:52:56.900Z,937.56
2017-06-11T12:54:09.790Z,937.57
2017-06-11T12:55:22.685Z,937.54
2017-06-11T12:56:35.578Z,937.52
2017-06-11T12:57:48.472Z,937.52
2017-06-11T12:59:01.371Z,937.52
2017-06-11T13:00:14.275Z,937.53
2017-06-11T13:01:26.682Z,937.49
2017-06-11T13:02:39.080Z,937.48
2017-06-11T13:03:51.973Z,937.5
2017-06-11T13:05:04.868Z,937.47
2017-06-11T13:06:17.767Z,937.46
2017-06-11T13:07:30.660Z,937.44
2017-06-11T13:08:43.060Z,937.42
2017-06-11T13:09:55.953Z,937.45
2017-06-11T13:11:08.850Z,937.41
2017-06-11T13:12:21.745Z,937.41
2017-06-11T13:13:34.647Z,937.42
2017-06-11T13:14:47.542Z,937.43
2017-06-11T13:16:00.437Z,937.4
2017-06-11T13:17:12.860Z,937.39
2017-06-11T13:18:25.751Z,937.32
2017-06-11T13:19:38.646Z,937.34
2017-06-11T13:20:51.051Z,937.31
2017-06-11T13:22:03.457Z,937.3
2017-06-11T13:23:16.354Z,937.32
2017-06-11T13:24:29.446Z,937.32
2017-06-11T13:25:42.335Z,937.32
2017-06-11T13:26:55.252Z,937.28
2017-06-11T13:28:07.654Z,937.31
2017-06-11T13:29:20.548Z,937.3
2017-06-11T13:30:33.437Z,937.29
2017-06-11T13:31:45.841Z,937.26
2017-06-11T13:32:58.241Z,937.27
2017-06-11T13:34:10.640Z,937.27
2017-06-11T13:35:23.240Z,937.23
2017-06-11T13:36:36.134Z,937.2
2017-06-11T13:37:49.027Z,937.19
2017-06-11T13:39:00.937Z,937.18
2017-06-11T13:40:12.846Z,937.16
2017-06-11T13:41:25.937Z,937.2
2017-06-11T13:42:38.829Z,937.18
2017-06-11T13:43:51.720Z,937.15
2017-06-11T13:45:04.610Z,937.12
2017-06-11T13:46:17.507Z,937.16
2017-06-11T13:47:30.400Z,937.14
2017-06-11T13:48:43.292Z,937.12
2017-06-11T13:49:56.187Z,937.11
2017-06-11T13:51:08.590Z,937.08
2017-06-11T13:52:21.192Z,937.11
2017-06-11T13:53:34.099Z,937.1
2017-06-11T13:54:46.993Z,937.08
2017-06-11T13:55:59.893Z,937.09
2017-06-11T13:57:12.789Z,937.12
2017-06-11T13:58:25.192Z,937.04
2017-06-11T13:59:38.090Z,937.01
2017-06-11T14:00:50.510Z,937.02
2017-06-11T14:02:02.932Z,937.04
2017-06-11T14:03:15.848Z,937.01
2017-06-11T14:04:28.780Z,937.01
2017-06-11T14:05:41.700Z,937.03
2017-06-11T14:06:54.121Z,937
2017-06-11T14:08:06.741Z,937.02
2017-06-11T14:09:19.659Z,937.05
2017-06-11T14:10:32.571Z,937.06
2017-06-11T14:11:45.483Z,937.12
2017-06-11T14:12:58.396Z,937.1
2017-06-11T14:14:11.306Z,937.13
2017-06-11T14:15:24.247Z,937.17
2017-06-11T14:16:37.165Z,937.15
2017-06-11T14:17:50.077Z,937.17
2017-06-11T14:19:02.987Z,937.14
2017-06-11T14:20:15.897Z,937.11
2017-06-11T14:21:28.810Z,937.11
2017-06-11T14:22:41.229Z,937.09
2017-06-11T14:23:53.654Z,937.11
2017-06-11T14:25:06.273Z,937.09
2017-06-11T14:26:19.194Z,937.04
2017-06-11T14:27:31.639Z,937.07
2017-06-11T14:28:44.554Z,937.03
2017-06-11T14:29:56.975Z,937
2017-06-11T14:31:09.894Z,936.92
2017-06-11T14:32:22.856Z,936.91
2017-06-11T14:33:35.805Z,936.91
2017-06-11T14:34:48.849Z,936.87
2017-06-11T14:36:01.597Z,936.88
2017-06-11T14:37:14.021Z,936.85
2017-06-11T14:38:26.443Z,936.89
2017-06-11T14:39:39.375Z,936.9
2017-06-11T14:40:52.488Z,936.88
2017-06-11T14:42:05.405Z,936.85
2017-06-11T14:43:17.832Z,936.81
2017-06-11T14:44:30.751Z,936.8
2017-06-11T14:45:43.665Z,936.84
2017-06-11T14:47:10.627Z,936.79
2017-06-11T14:48:23.053Z,936.83
2017-06-11T14:49:35.976Z,936.79
2017-06-11T14:50:48.409Z,936.75
2017-06-11T14:52:01.033Z,936.72
2017-06-11T14:53:13.459Z,936.75
2017-06-11T14:54:26.373Z,936.71
2017-06-11T14:55:39.293Z,936.62
2017-06-11T14:56:51.718Z,936.64
2017-06-11T14:58:04.344Z,936.59
2017-06-11T14:59:17.256Z,936.57
2017-06-11T15:00:29.677Z,936.61
2017-06-11T15:01:42.590Z,936.59
2017-06-11T15:02:55.501Z,936.59
2017-06-11T15:04:07.925Z,936.55
2017-06-11T15:05:20.349Z,936.51
2017-06-11T15:06:33.269Z,936.53
2017-06-11T15:07:46.184Z,936.51
2017-06-11T15:08:58.117Z,936.48
2017-06-11T15:10:11.030Z,936.47
2017-06-11T15:11:23.942Z,936.42
2017-06-11T15:12:35.877Z,936.4
2017-06-11T15:13:48.991Z,936.33